Taumarunui, New Zealand
Current Conditions -  °F | °C
As of 11:30 AM on Sunday 23 Nov 2014 (Local Time) from NZAA Reporting Station
Scattered Clouds Scattered Clouds  
Wind Chill: 66°   Ceiling: Unl
Heat Index: 66°   Visibility: 6mi
Dew Point: 55°   Wind: 9mph
Humidity: 68%   Direction: 220°SW
Pressure: 30.12"   Gusts: NA
Location:  38.88°S, 175.27°E
Report Text: NZAA 222330Z AUTO 22008KT 9999 SCT029/// 19/13 Q1020 NOSIG
Loading
Personal Weather Stations






























Interactive Weather Map New forecast layout! Learn more

10-Day Weather Forecast

Advertisements
Track Severe Weather on mobile